createdAt,value
2022-10-28T00:00:24.600Z,24.30
2022-10-28T00:02:31.922Z,24.30
2022-10-28T00:04:36.821Z,24.40
2022-10-28T00:06:41.077Z,24.60
2022-10-28T00:08:46.263Z,24.80
2022-10-28T00:10:50.407Z,24.70
2022-10-28T00:12:54.320Z,24.80
2022-10-28T00:14:59.700Z,24.70
2022-10-28T00:17:08.029Z,24.80
2022-10-28T00:19:13.560Z,24.80
2022-10-28T00:21:18.848Z,24.80
2022-10-28T00:23:23.016Z,24.90
2022-10-28T00:25:27.511Z,24.80
2022-10-28T00:27:34.288Z,24.90
2022-10-28T00:29:39.642Z,25.10
2022-10-28T00:31:46.169Z,25.20
2022-10-28T00:33:50.409Z,25.40
2022-10-28T00:35:55.424Z,25.40
2022-10-28T00:37:59.671Z,25.40
2022-10-28T00:40:04.066Z,25.40
2022-10-28T00:42:09.848Z,25.40
2022-10-28T00:44:33.477Z,25.40
2022-10-28T00:46:42.937Z,25.60
2022-10-28T00:48:49.123Z,25.60
2022-10-28T00:50:56.433Z,25.50
2022-10-28T00:53:04.446Z,25.60
2022-10-28T00:55:11.885Z,25.60
2022-10-28T00:57:17.760Z,25.70
2022-10-28T00:59:24.618Z,25.60
2022-10-28T01:01:32.180Z,25.60
2022-10-28T01:03:37.412Z,25.70
2022-10-28T01:05:44.646Z,25.80
2022-10-28T01:07:49.146Z,25.80
2022-10-28T01:09:53.719Z,25.90
2022-10-28T01:12:18.484Z,26.00
2022-10-28T01:14:40.265Z,26.10
2022-10-28T01:16:50.404Z,26.20
2022-10-28T01:19:12.867Z,26.20
2022-10-28T01:21:40.787Z,26.20
2022-10-28T01:24:03.306Z,26.20
2022-10-28T01:26:19.973Z,26.20
2022-10-28T01:28:29.021Z,26.20
2022-10-28T01:30:53.414Z,26.40
2022-10-28T01:33:16.771Z,26.50
2022-10-28T01:35:47.736Z,26.50
2022-10-28T01:38:10.836Z,26.40
2022-10-28T01:40:29.867Z,26.50
2022-10-28T01:42:50.829Z,26.40
2022-10-28T01:44:59.183Z,26.50
2022-10-28T01:47:10.402Z,26.60
2022-10-28T01:49:19.680Z,26.70
2022-10-28T01:51:29.991Z,26.70
2022-10-28T01:53:39.035Z,26.90
2022-10-28T01:55:45.418Z,26.90
2022-10-28T01:57:49.993Z,26.90
2022-10-28T01:59:58.777Z,27.00
2022-10-28T02:02:08.911Z,27.00
2022-10-28T02:04:14.233Z,27.10
2022-10-28T02:06:21.464Z,27.00
2022-10-28T02:08:36.781Z,27.00
2022-10-28T02:10:42.210Z,27.00
2022-10-28T02:12:48.383Z,27.10
2022-10-28T02:14:55.752Z,27.10
2022-10-28T02:17:05.367Z,27.20
2022-10-28T02:19:28.518Z,27.30
2022-10-28T02:21:38.372Z,27.40
2022-10-28T02:23:47.200Z,27.50
2022-10-28T02:26:00.738Z,27.60
2022-10-28T02:30:21.451Z,27.70
2022-10-28T02:32:27.259Z,27.70
2022-10-28T02:34:43.286Z,27.70
2022-10-28T02:36:49.025Z,27.80
2022-10-28T02:38:57.098Z,27.80
2022-10-28T02:41:05.818Z,27.90
2022-10-28T02:43:10.403Z,27.80
2022-10-28T02:45:24.073Z,27.90
2022-10-28T02:47:30.445Z,28.00
2022-10-28T02:49:37.097Z,28.10
2022-10-28T02:52:08.765Z,28.10
2022-10-28T02:54:16.432Z,28.10
2022-10-28T02:56:21.361Z,28.20
2022-10-28T02:58:26.265Z,28.20
2022-10-28T03:00:33.120Z,28.30
2022-10-28T03:02:41.903Z,28.40
2022-10-28T03:04:45.808Z,28.50
2022-10-28T03:06:58.339Z,28.50
2022-10-28T03:09:02.793Z,28.50
2022-10-28T03:11:08.586Z,28.50
2022-10-28T03:13:17.202Z,28.50
2022-10-28T03:15:21.975Z,28.40
2022-10-28T03:17:30.642Z,28.60
2022-10-28T03:19:35.200Z,28.60
2022-10-28T03:21:39.698Z,28.70
2022-10-28T03:23:45.046Z,28.80
2022-10-28T03:25:50.024Z,28.90
2022-10-28T03:27:55.352Z,29.00
2022-10-28T03:29:59.439Z,29.00
2022-10-28T03:32:03.772Z,29.10
2022-10-28T03:34:07.749Z,29.00
2022-10-28T03:36:12.171Z,29.00
2022-10-28T03:38:20.509Z,29.10
2022-10-28T03:40:24.790Z,29.10
2022-10-28T03:42:29.351Z,29.10
2022-10-28T03:44:37.656Z,29.10
2022-10-28T03:46:41.865Z,29.20
2022-10-28T03:48:45.784Z,29.20
2022-10-28T03:50:55.118Z,29.20
2022-10-28T03:52:59.323Z,29.20
2022-10-28T03:55:03.135Z,29.20
2022-10-28T03:57:10.835Z,29.20
2022-10-28T03:59:17.727Z,29.30
2022-10-28T04:01:24.608Z,29.30
2022-10-28T04:03:28.797Z,29.40
2022-10-28T04:05:33.043Z,29.50
2022-10-28T04:07:36.894Z,29.60
2022-10-28T04:09:42.737Z,29.70
2022-10-28T04:11:49.390Z,29.70
2022-10-28T04:13:53.273Z,29.70
2022-10-28T04:15:59.445Z,29.70
2022-10-28T04:18:03.253Z,29.80
2022-10-28T04:20:07.533Z,29.80
2022-10-28T04:22:12.606Z,29.90
2022-10-28T04:24:18.285Z,30.00
2022-10-28T04:26:21.905Z,29.90
2022-10-28T04:28:26.321Z,29.90
2022-10-28T04:30:30.269Z,29.90
2022-10-28T04:32:34.101Z,30.00
2022-10-28T04:34:40.105Z,30.10
2022-10-28T04:36:44.424Z,30.00
2022-10-28T04:38:48.761Z,30.20
2022-10-28T04:40:53.458Z,30.20
2022-10-28T04:42:57.763Z,30.20
2022-10-28T04:45:01.774Z,30.30
2022-10-28T04:47:08.647Z,30.40
2022-10-28T04:49:12.509Z,30.40
2022-10-28T04:51:16.348Z,30.30
2022-10-28T04:53:24.732Z,30.30
2022-10-28T04:55:28.864Z,30.30
2022-10-28T04:57:33.941Z,30.40
2022-10-28T04:59:38.603Z,30.50
2022-10-28T05:01:42.876Z,30.50
2022-10-28T05:03:48.652Z,30.60
2022-10-28T05:05:53.120Z,30.50
2022-10-28T05:07:57.511Z,30.40
2022-10-28T05:10:03.552Z,30.40
2022-10-28T05:12:08.271Z,30.40
2022-10-28T05:14:12.389Z,30.40
2022-10-28T05:16:18.957Z,30.40
2022-10-28T05:18:25.245Z,30.50
2022-10-28T05:20:29.628Z,30.70
2022-10-28T05:22:33.736Z,30.70
2022-10-28T05:24:38.199Z,30.70
2022-10-28T05:26:43.016Z,30.70
2022-10-28T05:28:52.689Z,30.70
2022-10-28T05:30:56.558Z,30.80
2022-10-28T05:33:04.075Z,30.90
2022-10-28T05:35:09.029Z,30.80
2022-10-28T05:37:16.782Z,31.00
2022-10-28T05:39:20.759Z,30.80
2022-10-28T05:41:27.095Z,30.80
2022-10-28T05:43:30.954Z,30.80
2022-10-28T05:45:36.154Z,30.70
2022-10-28T05:47:48.542Z,30.80
2022-10-28T05:49:52.500Z,30.90
2022-10-28T05:51:57.250Z,30.90
2022-10-28T05:54:01.469Z,30.90
2022-10-28T05:56:06.131Z,31.00
2022-10-28T05:58:11.117Z,31.10
2022-10-28T06:00:15.624Z,31.00
2022-10-28T06:02:21.696Z,31.10
2022-10-28T06:04:26.584Z,31.10
2022-10-28T06:06:32.723Z,31.00
2022-10-28T06:08:38.852Z,31.10
2022-10-28T06:10:43.474Z,31.00
2022-10-28T06:12:47.924Z,30.90
2022-10-28T06:14:53.482Z,31.10
2022-10-28T06:16:57.440Z,31.00
2022-10-28T06:19:03.605Z,31.00
2022-10-28T06:21:08.404Z,30.90
2022-10-28T06:23:12.654Z,30.90
2022-10-28T06:25:19.008Z,31.00
2022-10-28T06:27:23.053Z,31.10
2022-10-28T06:29:29.733Z,31.00
2022-10-28T06:31:33.811Z,31.10
2022-10-28T06:33:38.038Z,31.10
2022-10-28T06:35:42.131Z,31.10
2022-10-28T06:37:48.020Z,31.20
2022-10-28T06:39:53.131Z,31.20
2022-10-28T06:41:57.166Z,31.20
2022-10-28T06:44:03.737Z,31.40
2022-10-28T06:46:08.709Z,31.40
2022-10-28T06:48:15.069Z,31.30
2022-10-28T06:50:19.112Z,31.20
2022-10-28T06:52:25.550Z,31.20
2022-10-28T06:54:29.751Z,31.20
2022-10-28T06:56:35.816Z,31.30
2022-10-28T06:58:42.119Z,31.40
2022-10-28T07:00:46.813Z,31.40
2022-10-28T07:02:55.836Z,31.30
2022-10-28T07:05:02.206Z,31.20
2022-10-28T07:07:07.137Z,31.20
2022-10-28T07:09:17.038Z,31.20
2022-10-28T07:11:21.074Z,31.20
2022-10-28T07:13:25.792Z,31.30
2022-10-28T07:15:32.419Z,31.30
2022-10-28T07:17:37.257Z,31.30
2022-10-28T07:19:41.113Z,31.30
2022-10-28T07:21:47.423Z,31.40
2022-10-28T07:23:56.039Z,31.40
2022-10-28T07:26:00.016Z,31.40
2022-10-28T07:28:06.143Z,31.30
2022-10-28T07:30:14.406Z,31.20
2022-10-28T07:32:18.983Z,31.20
2022-10-28T07:34:26.901Z,31.20
2022-10-28T07:36:33.928Z,31.10
2022-10-28T07:38:37.947Z,31.20
2022-10-28T07:40:42.044Z,31.20
2022-10-28T07:42:46.996Z,31.20
2022-10-28T07:44:50.833Z,31.30
2022-10-28T07:46:58.429Z,31.30
2022-10-28T07:49:08.495Z,31.30
2022-10-28T07:51:15.250Z,31.30
2022-10-28T07:53:19.863Z,31.40
2022-10-28T07:55:29.527Z,31.40
2022-10-28T07:57:34.864Z,31.40
2022-10-28T07:59:38.995Z,31.30
2022-10-28T08:01:45.622Z,31.20
2022-10-28T08:03:50.319Z,31.20
2022-10-28T08:06:00.742Z,31.20
2022-10-28T08:08:05.744Z,31.20
2022-10-28T08:10:12.771Z,31.20
2022-10-28T08:12:16.688Z,31.20
2022-10-28T08:14:25.367Z,31.10
2022-10-28T08:16:30.650Z,31.10
2022-10-28T08:18:36.007Z,31.00
2022-10-28T08:20:42.701Z,31.00
2022-10-28T08:22:48.064Z,31.00
2022-10-28T08:24:52.062Z,31.10
2022-10-28T08:26:56.553Z,31.10
2022-10-28T08:29:02.501Z,31.00
2022-10-28T08:31:10.555Z,31.00
2022-10-28T08:33:16.779Z,31.00
2022-10-28T08:35:20.843Z,31.10
2022-10-28T08:37:26.989Z,31.00
2022-10-28T08:39:31.567Z,31.00
2022-10-28T08:41:49.186Z,31.00
2022-10-28T08:44:02.247Z,31.00
2022-10-28T08:46:27.730Z,30.90
2022-10-28T08:48:32.786Z,30.90
2022-10-28T08:50:41.760Z,30.80
2022-10-28T08:52:50.055Z,30.80
2022-10-28T08:54:55.131Z,30.80
2022-10-28T08:57:00.738Z,30.80
2022-10-28T08:59:09.645Z,30.80
2022-10-28T09:01:18.156Z,30.70
2022-10-28T09:03:34.321Z,30.70
2022-10-28T09:05:41.126Z,30.60
2022-10-28T09:07:45.647Z,30.60
2022-10-28T09:09:49.931Z,30.60
2022-10-28T09:11:57.624Z,30.50
2022-10-28T09:14:04.694Z,30.50
2022-10-28T09:16:28.771Z,30.50
2022-10-28T09:18:35.708Z,30.50
2022-10-28T09:20:58.588Z,30.50
2022-10-28T09:23:09.134Z,30.50
2022-10-28T09:25:25.798Z,30.50
2022-10-28T09:27:29.553Z,30.40
2022-10-28T09:29:39.296Z,30.40
2022-10-28T09:31:51.267Z,30.30
2022-10-28T09:34:07.926Z,30.30
2022-10-28T09:36:15.444Z,30.30
2022-10-28T09:38:29.023Z,30.30
2022-10-28T09:40:33.844Z,30.30
2022-10-28T09:44:51.591Z,30.20
2022-10-28T09:46:56.732Z,30.20
2022-10-28T09:49:01.496Z,30.20
2022-10-28T09:51:10.181Z,30.20
2022-10-28T09:53:23.577Z,30.20
2022-10-28T09:55:27.753Z,30.10
2022-10-28T09:57:36.182Z,30.10
2022-10-28T09:59:40.345Z,30.10
2022-10-28T10:01:44.916Z,30.00
2022-10-28T10:03:52.088Z,30.00
2022-10-28T10:05:57.536Z,29.90
2022-10-28T10:08:04.569Z,29.90
2022-10-28T10:10:19.491Z,29.90
2022-10-28T10:12:23.610Z,29.90
2022-10-28T10:14:30.203Z,29.80
2022-10-28T10:16:36.492Z,29.80
2022-10-28T10:18:43.153Z,29.80
2022-10-28T10:20:48.346Z,29.80
2022-10-28T10:22:57.815Z,29.70
2022-10-28T10:25:22.870Z,29.70
2022-10-28T10:27:30.834Z,29.60
2022-10-28T10:29:37.888Z,29.60
2022-10-28T10:31:43.727Z,29.60
2022-10-28T10:33:52.085Z,29.50
2022-10-28T10:36:16.112Z,29.50
2022-10-28T10:38:20.234Z,29.50
2022-10-28T10:40:34.593Z,29.40
2022-10-28T10:42:57.346Z,29.30
2022-10-28T10:45:17.258Z,29.30
2022-10-28T10:47:27.894Z,29.20
2022-10-28T10:49:36.990Z,29.20
2022-10-28T10:51:42.875Z,29.10
2022-10-28T10:53:50.625Z,29.10
2022-10-28T10:55:59.578Z,29.00
2022-10-28T10:58:03.774Z,28.90
2022-10-28T11:00:12.665Z,28.80
2022-10-28T11:02:31.089Z,28.80
2022-10-28T11:04:40.023Z,28.80
2022-10-28T11:06:44.705Z,28.70
2022-10-28T11:08:56.174Z,28.60
2022-10-28T11:11:16.892Z,28.70
2022-10-28T11:13:27.237Z,28.70
2022-10-28T11:15:40.284Z,28.60
2022-10-28T11:17:55.704Z,28.70
2022-10-28T11:20:00.885Z,28.60
2022-10-28T11:22:18.324Z,28.70
2022-10-28T11:24:26.840Z,28.70
2022-10-28T11:26:31.597Z,28.60
2022-10-28T11:28:38.881Z,28.60
2022-10-28T11:30:45.309Z,28.50
2022-10-28T11:33:29.018Z,28.50
2022-10-28T11:35:44.986Z,28.50
2022-10-28T11:38:07.482Z,28.50
2022-10-28T11:40:33.218Z,28.40
2022-10-28T11:42:42.188Z,28.40
2022-10-28T11:44:56.889Z,28.40
2022-10-28T11:47:05.452Z,28.30
2022-10-28T11:49:12.259Z,28.30
2022-10-28T11:51:25.232Z,28.30
2022-10-28T11:53:49.055Z,28.20
2022-10-28T11:56:02.382Z,28.20
2022-10-28T11:58:09.530Z,28.10
2022-10-28T12:00:30.290Z,28.20
2022-10-28T12:02:38.540Z,28.20
2022-10-28T12:04:48.313Z,28.20
2022-10-28T12:06:55.431Z,28.20
2022-10-28T12:09:37.621Z,28.10
2022-10-28T12:11:47.801Z,28.10
2022-10-28T12:14:16.057Z,28.10
2022-10-28T12:16:27.654Z,28.10
2022-10-28T12:18:51.391Z,28.10
2022-10-28T12:21:08.874Z,28.00
2022-10-28T12:23:14.476Z,28.00
2022-10-28T12:25:19.624Z,28.00
2022-10-28T12:27:25.697Z,28.00
2022-10-28T12:29:40.284Z,28.00
2022-10-28T12:31:46.244Z,28.00
2022-10-28T12:33:51.164Z,28.00
2022-10-28T12:36:17.281Z,28.00
2022-10-28T12:38:26.649Z,27.90
2022-10-28T12:40:32.727Z,27.90
2022-10-28T12:42:42.790Z,27.90
2022-10-28T12:44:47.815Z,28.00
2022-10-28T12:47:02.044Z,28.00
2022-10-28T12:49:10.616Z,27.90
2022-10-28T12:51:18.793Z,27.90
2022-10-28T12:53:26.452Z,27.80
2022-10-28T12:55:32.973Z,27.80
2022-10-28T12:57:36.926Z,27.70
2022-10-28T12:59:44.456Z,27.70
2022-10-28T13:01:53.229Z,27.70
2022-10-28T13:03:57.825Z,27.60
2022-10-28T13:06:20.532Z,27.60
2022-10-28T13:08:42.985Z,27.60
2022-10-28T13:10:50.076Z,27.50
2022-10-28T13:13:13.650Z,27.50
2022-10-28T13:15:36.991Z,27.50
2022-10-28T13:17:43.953Z,27.50
2022-10-28T13:19:54.870Z,27.50
2022-10-28T13:22:17.673Z,27.50
2022-10-28T13:24:22.340Z,27.50
2022-10-28T13:26:35.934Z,27.40
2022-10-28T13:28:48.523Z,27.40
2022-10-28T13:30:56.525Z,27.50
2022-10-28T13:33:02.832Z,27.50
2022-10-28T13:35:14.346Z,27.50
2022-10-28T13:37:22.676Z,27.40
2022-10-28T13:39:33.955Z,27.40
2022-10-28T13:41:43.426Z,27.40
2022-10-28T13:43:52.542Z,27.40
2022-10-28T13:45:57.604Z,27.40
2022-10-28T13:48:24.185Z,27.40
2022-10-28T13:50:34.914Z,27.40
2022-10-28T13:52:39.315Z,27.30
2022-10-28T13:54:48.013Z,27.40
2022-10-28T13:56:54.124Z,27.50
2022-10-28T13:59:01.483Z,27.40
2022-10-28T14:01:39.827Z,27.40
2022-10-28T14:03:46.326Z,27.40
2022-10-28T14:05:52.236Z,27.30
2022-10-28T14:07:57.456Z,27.30
2022-10-28T14:10:22.354Z,27.20
2022-10-28T14:12:29.278Z,27.20
2022-10-28T14:14:33.266Z,27.20
2022-10-28T14:16:40.139Z,27.10
2022-10-28T14:18:50.365Z,27.10
2022-10-28T14:21:01.063Z,27.00
2022-10-28T14:23:21.375Z,27.00
2022-10-28T14:25:47.072Z,26.90
2022-10-28T14:27:53.444Z,26.90
2022-10-28T14:29:59.175Z,26.90
2022-10-28T14:32:25.524Z,26.90
2022-10-28T14:34:37.787Z,27.00
2022-10-28T14:36:43.775Z,27.00
2022-10-28T14:39:06.241Z,26.90
2022-10-28T14:41:17.677Z,26.90
2022-10-28T14:43:32.193Z,26.90
2022-10-28T14:45:39.204Z,26.90
2022-10-28T14:47:47.625Z,26.90
2022-10-28T14:50:02.587Z,26.90
2022-10-28T14:52:11.274Z,26.90
2022-10-28T14:54:19.477Z,26.90
2022-10-28T14:56:27.382Z,26.90
2022-10-28T14:58:34.320Z,26.90
2022-10-28T15:00:40.776Z,26.90
2022-10-28T15:02:45.178Z,26.90
2022-10-28T15:04:50.243Z,26.80
2022-10-28T15:06:56.951Z,26.70
2022-10-28T15:09:08.389Z,26.70
2022-10-28T15:11:12.447Z,26.60
2022-10-28T15:13:24.268Z,26.70
2022-10-28T15:15:30.707Z,26.50
2022-10-28T15:17:40.556Z,26.60
2022-10-28T15:19:56.684Z,26.60
2022-10-28T15:22:01.600Z,26.70
2022-10-28T15:24:07.939Z,26.70
2022-10-28T15:26:16.623Z,26.80
2022-10-28T15:28:20.486Z,26.70
2022-10-28T15:30:25.490Z,26.60
2022-10-28T15:32:32.842Z,26.70
2022-10-28T15:34:41.831Z,26.60
2022-10-28T15:36:49.398Z,26.50
2022-10-28T15:39:04.019Z,26.60
2022-10-28T15:41:28.424Z,26.50
2022-10-28T15:43:32.627Z,26.40
2022-10-28T15:45:42.726Z,26.60
2022-10-28T15:47:46.932Z,26.60
2022-10-28T15:50:17.176Z,26.60
2022-10-28T15:52:26.196Z,26.60
2022-10-28T15:54:30.104Z,26.50
2022-10-28T15:56:34.156Z,26.40
2022-10-28T15:58:44.323Z,26.40
2022-10-28T16:00:54.458Z,26.40
2022-10-28T16:02:59.671Z,26.40
2022-10-28T16:05:08.427Z,26.40
2022-10-28T16:07:12.747Z,26.30
2022-10-28T16:09:28.330Z,26.30
2022-10-28T16:11:38.753Z,26.30
2022-10-28T16:13:48.122Z,26.40
2022-10-28T16:15:58.233Z,26.40
2022-10-28T16:18:06.498Z,26.40
2022-10-28T16:20:18.964Z,26.30
2022-10-28T16:22:23.455Z,26.30
2022-10-28T16:24:30.797Z,26.30
2022-10-28T16:26:34.618Z,26.30
2022-10-28T16:28:45.564Z,26.20
2022-10-28T16:30:53.542Z,26.20
2022-10-28T16:32:59.885Z,26.30
2022-10-28T16:35:03.819Z,26.20
2022-10-28T16:37:24.332Z,26.30
2022-10-28T16:39:28.168Z,26.20
2022-10-28T16:41:34.320Z,26.10
2022-10-28T16:43:40.896Z,26.10
2022-10-28T16:45:44.817Z,26.20
2022-10-28T16:47:48.612Z,26.10
2022-10-28T16:49:59.070Z,26.20
2022-10-28T16:52:03.961Z,26.10
2022-10-28T16:54:08.547Z,26.00
2022-10-28T16:56:14.700Z,26.10
2022-10-28T16:58:23.124Z,26.00
2022-10-28T17:00:29.936Z,26.00
2022-10-28T17:02:39.086Z,26.00
2022-10-28T17:04:43.055Z,26.00
2022-10-28T17:06:47.348Z,26.00
2022-10-28T17:09:02.917Z,26.00
2022-10-28T17:11:07.603Z,26.10
2022-10-28T17:13:14.696Z,26.00
2022-10-28T17:15:20.976Z,26.00
2022-10-28T17:17:24.763Z,26.00
2022-10-28T17:19:28.524Z,26.00
2022-10-28T17:21:33.730Z,25.90
2022-10-28T17:23:37.642Z,25.90
2022-10-28T17:27:54.419Z,25.80
2022-10-28T17:29:59.251Z,25.70
2022-10-28T17:32:03.437Z,25.80
2022-10-28T17:34:11.743Z,25.80
2022-10-28T17:36:15.561Z,25.80
2022-10-28T17:38:19.822Z,25.70
2022-10-28T17:40:26.770Z,25.70
2022-10-28T17:42:30.886Z,25.60
2022-10-28T17:44:35.454Z,25.60
2022-10-28T17:46:43.874Z,25.60
2022-10-28T17:48:47.605Z,25.60
2022-10-28T17:50:57.223Z,25.60
2022-10-28T17:53:05.299Z,25.60
2022-10-28T17:55:09.947Z,25.60
2022-10-28T17:57:13.739Z,25.60
2022-10-28T17:59:22.263Z,25.60
2022-10-28T18:01:26.621Z,25.60
2022-10-28T18:03:34.041Z,25.60
2022-10-28T18:05:45.231Z,25.50
2022-10-28T18:07:49.373Z,25.50
2022-10-28T18:09:53.219Z,25.40
2022-10-28T18:12:01.149Z,25.50
2022-10-28T18:14:05.154Z,25.50
2022-10-28T18:16:10.197Z,25.50
2022-10-28T18:18:18.313Z,25.40
2022-10-28T18:20:22.548Z,25.40
2022-10-28T18:24:36.895Z,25.40
2022-10-28T18:26:41.373Z,25.40
2022-10-28T18:28:45.947Z,25.30
2022-10-28T18:30:54.104Z,25.30
2022-10-28T18:32:57.995Z,25.30
2022-10-28T18:35:02.323Z,25.20
2022-10-28T18:37:11.467Z,25.20
2022-10-28T18:39:15.748Z,25.20
2022-10-28T18:41:23.433Z,25.10
2022-10-28T18:43:31.589Z,25.20
2022-10-28T18:45:37.709Z,25.20
2022-10-28T18:47:41.910Z,25.20
2022-10-28T18:49:49.856Z,25.30
2022-10-28T18:51:56.437Z,25.30
2022-10-28T18:54:00.392Z,25.20
2022-10-28T18:56:09.669Z,25.10
2022-10-28T18:58:16.275Z,25.20
2022-10-28T19:00:20.355Z,25.10
2022-10-28T19:02:27.099Z,25.10
2022-10-28T19:04:31.401Z,25.10
2022-10-28T19:06:35.344Z,25.10
2022-10-28T19:08:43.725Z,25.00
2022-10-28T19:10:49.562Z,25.10
2022-10-28T19:12:53.597Z,25.00
2022-10-28T19:14:59.941Z,24.90
2022-10-28T19:17:06.088Z,25.00
2022-10-28T19:19:10.427Z,25.00
2022-10-28T19:21:16.677Z,25.00
2022-10-28T19:23:20.849Z,25.00
2022-10-28T19:25:24.814Z,24.90
2022-10-28T19:27:33.146Z,25.00
2022-10-28T19:31:45.864Z,25.00
2022-10-28T19:33:54.002Z,25.00
2022-10-28T19:36:04.198Z,24.90
2022-10-28T19:38:08.146Z,25.00
2022-10-28T19:40:13.846Z,24.90
2022-10-28T19:42:17.660Z,25.00
2022-10-28T19:44:21.521Z,24.90
2022-10-28T19:46:28.047Z,24.90
2022-10-28T19:48:32.009Z,24.90
2022-10-28T19:50:36.327Z,24.90
2022-10-28T19:52:47.052Z,24.90
2022-10-28T19:54:54.392Z,24.80
2022-10-28T19:57:05.884Z,24.60
2022-10-28T19:59:15.728Z,24.60
2022-10-28T20:01:21.705Z,24.70
2022-10-28T20:03:26.181Z,24.70
2022-10-28T20:05:34.699Z,24.60
2022-10-28T20:07:38.762Z,24.60
2022-10-28T20:09:45.726Z,24.70
2022-10-28T20:11:54.327Z,24.70
2022-10-28T20:13:59.277Z,24.80
2022-10-28T20:16:04.133Z,24.60
2022-10-28T20:18:13.995Z,24.60
2022-10-28T20:20:37.622Z,24.60
2022-10-28T20:22:46.251Z,24.60
2022-10-28T20:24:57.587Z,24.60
2022-10-28T20:27:08.216Z,24.60
2022-10-28T20:29:14.151Z,24.60
2022-10-28T20:31:33.618Z,24.60
2022-10-28T20:33:43.914Z,24.60
2022-10-28T20:36:08.117Z,24.60
2022-10-28T20:38:19.423Z,24.50
2022-10-28T20:40:23.517Z,24.50
2022-10-28T20:42:32.017Z,24.50
2022-10-28T20:44:42.528Z,24.50
2022-10-28T20:46:48.790Z,24.50
2022-10-28T20:48:57.417Z,24.60
2022-10-28T20:51:06.188Z,24.60
2022-10-28T20:53:20.138Z,24.40
2022-10-28T20:55:33.406Z,24.50
2022-10-28T20:57:46.722Z,24.30
2022-10-28T20:59:52.609Z,24.10
2022-10-28T21:02:04.273Z,24.20
2022-10-28T21:04:14.747Z,24.10
2022-10-28T21:06:21.493Z,24.20
2022-10-28T21:08:28.080Z,24.00
2022-10-28T21:10:38.480Z,24.10
2022-10-28T21:12:46.056Z,24.20
2022-10-28T21:14:50.540Z,24.00
2022-10-28T21:17:03.738Z,24.10
2022-10-28T21:19:15.276Z,23.90
2022-10-28T21:21:23.797Z,24.00
2022-10-28T21:23:36.865Z,24.10
2022-10-28T21:25:52.791Z,24.10
2022-10-28T21:27:57.852Z,23.80
2022-10-28T21:30:16.215Z,23.80
2022-10-28T21:32:20.158Z,23.90
2022-10-28T21:34:29.936Z,23.80
2022-10-28T21:36:38.985Z,23.70
2022-10-28T21:38:46.704Z,23.70
2022-10-28T21:40:59.381Z,23.70
2022-10-28T21:43:07.947Z,23.50
2022-10-28T21:45:13.554Z,23.70
2022-10-28T21:47:18.321Z,23.80
2022-10-28T21:49:34.928Z,23.90
2022-10-28T21:51:40.716Z,23.90
2022-10-28T21:53:47.201Z,23.90
2022-10-28T21:56:08.340Z,23.90
2022-10-28T21:58:21.957Z,23.90
2022-10-28T22:00:26.385Z,23.90
2022-10-28T22:02:33.865Z,23.90
2022-10-28T22:04:40.430Z,23.80
2022-10-28T22:06:56.550Z,23.80
2022-10-28T22:09:05.970Z,23.90
2022-10-28T22:11:15.081Z,23.70
2022-10-28T22:13:19.156Z,23.60
2022-10-28T22:15:26.102Z,23.70
2022-10-28T22:17:30.553Z,23.80
2022-10-28T22:19:39.771Z,23.60
2022-10-28T22:21:48.112Z,23.60
2022-10-28T22:23:52.995Z,23.60
2022-10-28T22:26:01.316Z,23.50
2022-10-28T22:28:08.962Z,23.40
2022-10-28T22:30:20.943Z,23.50
2022-10-28T22:32:26.586Z,23.40
2022-10-28T22:34:34.913Z,23.40
2022-10-28T22:36:44.290Z,23.40
2022-10-28T22:38:52.059Z,23.50
2022-10-28T22:41:11.884Z,23.50
2022-10-28T22:43:21.689Z,23.50
2022-10-28T22:45:33.153Z,23.60
2022-10-28T22:47:58.081Z,23.60
2022-10-28T22:50:11.155Z,23.60
2022-10-28T22:52:16.452Z,23.60
2022-10-28T22:54:31.872Z,23.60
2022-10-28T22:56:38.173Z,23.60
2022-10-28T22:58:42.729Z,23.60
2022-10-28T23:00:58.100Z,23.60
2022-10-28T23:03:08.022Z,23.60
2022-10-28T23:05:12.679Z,23.60
2022-10-28T23:07:23.518Z,23.60
2022-10-28T23:09:31.841Z,23.60
2022-10-28T23:11:36.628Z,23.60
2022-10-28T23:13:43.919Z,23.60
2022-10-28T23:15:48.892Z,23.50
2022-10-28T23:17:53.601Z,23.40
2022-10-28T23:20:08.432Z,23.50
2022-10-28T23:22:13.921Z,23.50
2022-10-28T23:24:18.300Z,23.60
2022-10-28T23:26:31.453Z,23.60
2022-10-28T23:28:36.116Z,23.70
2022-10-28T23:30:50.019Z,23.70
2022-10-28T23:32:57.912Z,23.60
2022-10-28T23:35:02.508Z,23.70
2022-10-28T23:37:08.306Z,23.60
2022-10-28T23:39:26.210Z,23.70
2022-10-28T23:41:34.464Z,23.70
2022-10-28T23:43:40.201Z,23.50
2022-10-28T23:45:51.622Z,23.60
2022-10-28T23:47:57.782Z,23.60
2022-10-28T23:50:02.669Z,23.50
2022-10-28T23:52:11.878Z,23.50
2022-10-28T23:54:18.082Z,23.40
2022-10-28T23:56:29.319Z,23.40
2022-10-28T23:58:40.485Z,23.50
